createdAt,value
2023-04-22T00:03:28.981Z,98226.06
2023-04-22T00:08:33.372Z,98223.34
2023-04-22T00:13:38.081Z,98219.81
2023-04-22T00:18:43.549Z,98221.34
2023-04-22T00:23:47.954Z,98212.63
2023-04-22T00:28:52.275Z,98216.25
2023-04-22T00:33:57.548Z,98213.34
2023-04-22T00:39:01.660Z,98209.38
2023-04-22T00:44:05.707Z,98207.44
2023-04-22T00:49:10.915Z,98205.91
2023-04-22T00:54:15.142Z,98209.59
2023-04-22T00:59:19.621Z,98204.94
2023-04-22T01:04:25.906Z,98210.31
2023-04-22T01:09:30.005Z,98204.19
2023-04-22T01:14:34.703Z,98205.81
2023-04-22T01:19:41.750Z,98206.34
2023-04-22T01:24:47.904Z,98201.78
2023-04-22T01:29:52.513Z,98196.09
2023-04-22T01:34:56.621Z,98200.06
2023-04-22T01:40:02.298Z,98198.56
2023-04-22T01:45:07.821Z,98196.16
2023-04-22T01:50:12.109Z,98190.72
2023-04-22T01:55:17.971Z,98201.56
2023-04-22T02:00:22.356Z,98196.41
2023-04-22T02:05:27.408Z,98197.22
2023-04-22T02:10:33.314Z,98197.72
2023-04-22T02:15:37.521Z,98199.53
2023-04-22T02:20:41.564Z,98201.72
2023-04-22T02:25:51.712Z,98195.63
2023-04-22T02:30:56.149Z,98193.56
2023-04-22T02:36:00.602Z,98192.19
2023-04-22T02:41:06.788Z,98191.78
2023-04-22T02:46:14.033Z,98196.00
2023-04-22T02:51:17.960Z,98189.75
2023-04-22T02:56:23.322Z,98185.38
2023-04-22T03:01:27.507Z,98194.28
2023-04-22T03:06:35.632Z,98191.28
2023-04-22T03:11:41.104Z,98193.31
2023-04-22T03:16:45.638Z,98196.59
2023-04-22T03:21:51.798Z,98205.56
2023-04-22T03:26:59.239Z,98197.41
2023-04-22T03:32:03.902Z,98195.22
2023-04-22T03:37:12.315Z,98192.25
2023-04-22T03:42:18.248Z,98194.44
2023-04-22T03:47:23.327Z,98199.22
2023-04-22T03:52:33.315Z,98196.34
2023-04-22T03:57:41.000Z,98202.44
2023-04-22T04:02:46.624Z,98194.72
2023-04-22T04:07:54.497Z,98202.06
2023-04-22T04:13:01.839Z,98200.56
2023-04-22T04:18:14.071Z,98204.88
2023-04-22T04:23:18.917Z,98207.44
2023-04-22T04:28:25.569Z,98201.38
2023-04-22T04:33:29.751Z,98205.66
2023-04-22T04:38:34.229Z,98207.16
2023-04-22T04:43:40.864Z,98209.03
2023-04-22T04:48:54.920Z,98214.56
2023-04-22T04:53:59.792Z,98206.19
2023-04-22T04:59:10.629Z,98208.97
2023-04-22T05:04:16.301Z,98207.25
2023-04-22T05:09:21.387Z,98202.66
2023-04-22T05:14:28.375Z,98207.38
2023-04-22T05:19:33.138Z,98205.00
2023-04-22T05:24:38.732Z,98212.34
2023-04-22T05:29:44.482Z,98206.22
2023-04-22T05:34:50.372Z,98211.75
2023-04-22T05:39:54.693Z,98214.16
2023-04-22T05:45:00.598Z,98215.41
2023-04-22T05:50:07.784Z,98214.03
2023-04-22T05:55:19.142Z,98214.94
2023-04-22T06:00:24.605Z,98217.72
2023-04-22T06:05:44.320Z,98212.13
2023-04-22T06:10:48.338Z,98212.69
2023-04-22T06:15:54.630Z,98218.09
2023-04-22T06:20:59.422Z,98222.50
2023-04-22T06:26:03.472Z,98216.88
2023-04-22T06:31:09.269Z,98231.41
2023-04-22T06:36:14.300Z,98225.34
2023-04-22T06:41:21.500Z,98229.69
2023-04-22T06:46:28.758Z,98229.78
2023-04-22T06:52:03.120Z,98234.63
2023-04-22T06:57:08.165Z,98237.38
2023-04-22T07:02:13.736Z,98245.13
2023-04-22T07:07:18.365Z,98261.69
2023-04-22T07:12:24.081Z,98256.34
2023-04-22T07:17:29.546Z,98261.28
2023-04-22T07:22:34.138Z,98256.34
2023-04-22T07:27:38.262Z,98262.31
2023-04-22T07:32:43.745Z,98268.00
2023-04-22T07:37:47.928Z,98270.06
2023-04-22T07:42:51.956Z,98280.59
2023-04-22T07:47:57.566Z,98278.53
2023-04-22T07:53:01.922Z,98271.28
2023-04-22T07:58:06.967Z,98279.38
2023-04-22T08:03:12.525Z,98281.53
2023-04-22T08:08:17.041Z,98281.69
2023-04-22T08:13:21.141Z,98284.66
2023-04-22T08:18:26.814Z,98283.41
2023-04-22T08:23:31.414Z,98288.81
2023-04-22T08:28:35.743Z,98291.66
2023-04-22T08:33:41.631Z,98288.88
2023-04-22T08:38:48.334Z,98289.09
2023-04-22T08:43:54.678Z,98277.25
2023-04-22T08:49:03.286Z,98285.75
2023-04-22T08:54:07.418Z,98282.78
2023-04-22T08:59:12.310Z,98289.16
2023-04-22T09:04:19.056Z,98290.28
2023-04-22T09:09:24.829Z,98291.84
2023-04-22T09:14:28.928Z,98276.97
2023-04-22T09:19:34.745Z,98272.25
2023-04-22T09:24:42.499Z,98277.94
2023-04-22T09:29:49.823Z,98273.78
2023-04-22T09:34:57.587Z,98271.25
2023-04-22T09:40:01.674Z,98263.69
2023-04-22T09:45:06.563Z,98253.28
2023-04-22T09:50:13.066Z,98259.47
2023-04-22T09:55:17.349Z,98253.94
2023-04-22T10:00:22.482Z,98252.41
2023-04-22T10:05:29.766Z,98240.91
2023-04-22T10:10:34.487Z,98240.72
2023-04-22T10:15:41.377Z,98232.19
2023-04-22T10:20:47.496Z,98227.84
2023-04-22T10:25:54.683Z,98229.66
2023-04-22T10:30:59.044Z,98223.34
2023-04-22T10:36:21.021Z,98229.13
2023-04-22T10:41:25.695Z,98228.75
2023-04-22T10:47:00.946Z,98226.91
2023-04-22T10:52:09.315Z,98210.56
2023-04-22T10:57:15.430Z,98206.56
2023-04-22T11:02:21.200Z,98210.72
2023-04-22T11:07:35.315Z,98210.72
2023-04-22T11:12:43.301Z,98210.69
2023-04-22T11:17:48.934Z,98209.69
2023-04-22T11:22:55.333Z,98189.47
2023-04-22T11:27:59.878Z,98199.19
2023-04-22T11:33:04.418Z,98198.06
2023-04-22T11:38:10.064Z,98181.22
2023-04-22T11:43:14.202Z,98186.25
2023-04-22T11:48:18.505Z,98180.41
2023-04-22T11:53:24.299Z,98187.13
2023-04-22T11:58:28.864Z,98193.50
2023-04-22T12:03:35.492Z,98182.16
2023-04-22T12:08:43.715Z,98175.34
2023-04-22T12:13:47.831Z,98172.69
2023-04-22T12:18:53.616Z,98175.94
2023-04-22T12:24:00.473Z,98162.50
2023-04-22T12:29:05.466Z,98162.97
2023-04-22T12:34:09.585Z,98166.41
2023-04-22T12:39:15.710Z,98151.00
2023-04-22T12:44:19.994Z,98163.06
2023-04-22T12:49:23.875Z,98155.22
2023-04-22T12:54:29.099Z,98149.25
2023-04-22T12:59:33.140Z,98147.06
2023-04-22T13:04:37.546Z,98143.22
2023-04-22T13:09:43.485Z,98144.69
2023-04-22T13:14:47.785Z,98143.75
2023-04-22T13:19:51.845Z,98125.91
2023-04-22T13:24:57.382Z,98133.22
2023-04-22T13:30:02.201Z,98124.06
2023-04-22T13:35:08.036Z,98127.88
2023-04-22T13:40:13.815Z,98125.06
2023-04-22T13:45:18.035Z,98118.53
2023-04-22T13:50:23.071Z,98114.78
2023-04-22T13:55:29.565Z,98106.31
2023-04-22T14:00:35.645Z,98097.69
2023-04-22T14:05:40.872Z,98097.06
2023-04-22T14:10:46.700Z,98086.38
2023-04-22T14:15:51.523Z,98103.56
2023-04-22T14:20:56.249Z,98096.91
2023-04-22T14:26:02.213Z,98081.78
2023-04-22T14:31:07.370Z,98080.34
2023-04-22T14:36:11.872Z,98078.13
2023-04-22T14:41:17.460Z,98070.47
2023-04-22T14:46:21.743Z,98072.16
2023-04-22T14:51:27.951Z,98068.06
2023-04-22T14:56:34.439Z,98079.28
2023-04-22T15:01:41.866Z,98075.56
2023-04-22T15:06:46.786Z,98066.78
2023-04-22T15:11:54.257Z,98067.38
2023-04-22T15:16:58.700Z,98057.53
2023-04-22T15:22:03.164Z,98060.84
2023-04-22T15:27:09.117Z,98055.91
2023-04-22T15:32:14.257Z,98047.41
2023-04-22T15:37:18.250Z,98043.66
2023-04-22T15:42:24.127Z,98051.88
2023-04-22T15:47:29.569Z,98046.59
2023-04-22T15:52:34.358Z,98035.38
2023-04-22T15:57:40.116Z,98024.03
2023-04-22T16:02:44.976Z,98023.44
2023-04-22T16:07:49.303Z,98019.25
2023-04-22T16:12:54.866Z,98017.75
2023-04-22T16:17:58.733Z,98018.97
2023-04-22T16:23:02.567Z,98007.97
2023-04-22T16:28:08.822Z,98010.97
2023-04-22T16:33:13.068Z,98012.25
2023-04-22T16:38:17.018Z,98008.63
2023-04-22T16:43:22.586Z,98007.84
2023-04-22T16:48:26.905Z,97999.91
2023-04-22T16:53:31.129Z,97999.88
2023-04-22T16:58:36.711Z,97997.31
2023-04-22T17:03:41.645Z,98001.06
2023-04-22T17:08:46.242Z,97992.75
2023-04-22T17:13:51.841Z,97993.13
2023-04-22T17:18:56.298Z,97991.78
2023-04-22T17:24:00.620Z,97986.88
2023-04-22T17:29:06.615Z,97983.22
2023-04-22T17:34:10.834Z,97982.06
2023-04-22T17:39:15.327Z,97975.91
2023-04-22T17:44:21.083Z,97981.25
2023-04-22T17:49:25.350Z,97986.06
2023-04-22T17:54:29.468Z,97988.06
2023-04-22T17:59:42.715Z,97986.59
2023-04-22T18:04:47.594Z,97981.84
2023-04-22T18:09:51.871Z,97985.63
2023-04-22T18:14:57.174Z,97986.50
2023-04-22T18:20:10.249Z,97985.97
2023-04-22T18:25:21.419Z,97988.88
2023-04-22T18:30:26.968Z,97989.13
2023-04-22T18:35:31.554Z,97985.13
2023-04-22T18:40:35.952Z,97977.84
2023-04-22T18:45:41.405Z,97977.06
2023-04-22T18:50:45.613Z,97980.50
2023-04-22T18:55:49.472Z,97970.84
2023-04-22T19:00:54.654Z,97971.41
2023-04-22T19:05:59.228Z,97974.25
2023-04-22T19:11:03.314Z,97974.69
2023-04-22T19:16:09.214Z,97973.69
2023-04-22T19:21:13.531Z,97971.84
2023-04-22T19:26:18.115Z,97971.06
2023-04-22T19:31:24.187Z,97971.03
2023-04-22T19:36:28.527Z,97966.53
2023-04-22T19:41:33.567Z,97965.72
2023-04-22T19:46:39.321Z,97967.63
2023-04-22T19:51:43.976Z,97961.91
2023-04-22T19:56:49.107Z,97954.81
2023-04-22T20:01:55.070Z,97955.78
2023-04-22T20:07:02.660Z,97950.88
2023-04-22T20:12:07.874Z,97946.50
2023-04-22T20:17:14.087Z,97945.00
2023-04-22T20:22:18.754Z,97950.50
2023-04-22T20:27:24.486Z,97940.50
2023-04-22T20:32:31.663Z,97935.56
2023-04-22T20:37:36.094Z,97935.00
2023-04-22T20:42:40.457Z,97931.03
2023-04-22T20:47:46.313Z,97938.56
2023-04-22T20:52:52.289Z,97936.00
2023-04-22T20:57:56.703Z,97935.47
2023-04-22T21:03:02.420Z,97941.81
2023-04-22T21:08:11.230Z,97932.09
2023-04-22T21:13:16.055Z,97941.75
2023-04-22T21:18:22.502Z,97932.59
2023-04-22T21:23:27.358Z,97939.25
2023-04-22T21:28:31.904Z,97939.97
2023-04-22T21:33:37.705Z,97941.25
2023-04-22T21:38:42.234Z,97951.69
2023-04-22T21:43:46.582Z,97951.75
2023-04-22T21:48:52.159Z,97950.81
2023-04-22T21:53:56.158Z,97947.19
2023-04-22T21:59:00.608Z,97951.69
2023-04-22T22:04:06.502Z,97956.81
2023-04-22T22:09:11.780Z,97958.59
2023-04-22T22:14:16.308Z,97955.53
2023-04-22T22:19:21.770Z,97951.97
2023-04-22T22:24:25.812Z,97954.47
2023-04-22T22:29:29.953Z,97953.75
2023-04-22T22:34:35.563Z,97940.97
2023-04-22T22:39:39.367Z,97940.41
2023-04-22T22:44:43.600Z,97936.50
2023-04-22T22:49:49.223Z,97938.06
2023-04-22T22:54:53.200Z,97941.66
2023-04-22T22:59:57.256Z,97939.56
2023-04-22T23:05:03.691Z,97942.19
2023-04-22T23:10:09.877Z,97942.06
2023-04-22T23:15:13.922Z,97940.47
2023-04-22T23:20:19.400Z,97931.91
2023-04-22T23:25:24.507Z,97932.41
2023-04-22T23:30:29.243Z,97928.25
2023-04-22T23:35:36.387Z,97934.44
2023-04-22T23:40:40.617Z,97929.56
2023-04-22T23:45:44.489Z,97929.09
2023-04-22T23:50:50.306Z,97926.53
2023-04-22T23:55:54.852Z,97924.13
